La Union, Spain
Current Conditions -  °F | °C
As of 12:00 PM on Thursday 23 Oct 2014 (Local Time) from LELC Reporting Station
Few Clouds Few Clouds  
Wind Chill: 72°   Ceiling: Unl
Heat Index: 72°   Visibility: 6mi
Dew Point: 59°   Wind: 5mph
Humidity: 64%   Direction: 240°WSW
Pressure: 30.18"   Gusts: NA
Location:  37.62°N, 0.88°W
Report Text: LELC 231000Z 24004KT 160V270 9999 FEW020 22/15 Q1022 NOSIG
Loading
Personal Weather Stations






























Interactive Weather Map
Tropical Storm Tracking
New forecast layout! Learn more

10-Day Weather Forecast

Advertisements
Track Severe Weather on mobile